Terminal Aerodrome Forecast
Issued by NWS

Home | Current Version | Previous Version | Text Only | Print | Product List | Glossary On
Versions: 1 2 3 4 5 6 7 8 9 10 11 12 13 14 15 16 17 18 19 20 21 22 23 24 25 26 27 28 29 30 31 32 33
000
FTUS43 KGLD 191100 RRA
TAFMCK
TAF
KMCK 191142Z 1912/2012 18005KT 6SM BR OVC008
     FM191400 14005KT P6SM OVC006
     FM191700 14010KT P6SM BKN013
     FM192000 15015G25KT P6SM FEW120
     FM200200 16015KT P6SM SKC=

USA.gov is the U.S. government's official web portal to all federal, state and local government web resources and services.